sensor_id;sensor_type;location;lat;lon;timestamp;pressure;altitude;pressure_sealevel;temperature;humidity
6833;BME280;3454;42.654;23.378;2023-07-29T00:01:51;65151.47;;;20.64;61.41
6833;BME280;3454;42.654;23.378;2023-07-29T00:04:17;65152.56;;;20.65;61.55
6833;BME280;3454;42.654;23.378;2023-07-29T00:06:42;65133.03;;;20.45;62.29
6833;BME280;3454;42.654;23.378;2023-07-29T00:09:08;65110.72;;;20.22;63.79
6833;BME280;3454;42.654;23.378;2023-07-29T00:11:34;65117.91;;;20.29;64.15
6833;BME280;3454;42.654;23.378;2023-07-29T00:14:01;65136.72;;;20.46;63.31
6833;BME280;3454;42.654;23.378;2023-07-29T00:16:26;65127.53;;;20.40;62.13
6833;BME280;3454;42.654;23.378;2023-07-29T00:18:52;65109.84;;;20.24;62.05
6833;BME280;3454;42.654;23.378;2023-07-29T00:21:17;65088.81;;;20.04;60.07
6833;BME280;3454;42.654;23.378;2023-07-29T00:23:43;65090.28;;;20.03;60.78
6833;BME280;3454;42.654;23.378;2023-07-29T00:26:09;65066.72;;;19.84;59.86
6833;BME280;3454;42.654;23.378;2023-07-29T00:28:34;65059.34;;;19.75;60.74
6833;BME280;3454;42.654;23.378;2023-07-29T00:31:00;65055.69;;;19.74;61.20
6833;BME280;3454;42.654;23.378;2023-07-29T00:33:25;65067.50;;;19.87;60.16
6833;BME280;3454;42.654;23.378;2023-07-29T00:35:51;65065.06;;;19.83;60.39
6833;BME280;3454;42.654;23.378;2023-07-29T00:38:16;65078.88;;;19.95;60.16
6833;BME280;3454;42.654;23.378;2023-07-29T00:40:42;65070.06;;;19.87;60.15
6833;BME280;3454;42.654;23.378;2023-07-29T00:43:08;65056.03;;;19.72;60.52
6833;BME280;3454;42.654;23.378;2023-07-29T00:45:34;65061.22;;;19.79;60.15
6833;BME280;3454;42.654;23.378;2023-07-29T00:48:01;65052.38;;;19.71;60.17
6833;BME280;3454;42.654;23.378;2023-07-29T00:50:28;65028.63;;;19.50;61.42
6833;BME280;3454;42.654;23.378;2023-07-29T00:52:55;65008.19;;;19.31;61.97
6833;BME280;3454;42.654;23.378;2023-07-29T00:55:21;65001.56;;;19.25;62.74
6833;BME280;3454;42.654;23.378;2023-07-29T00:57:47;64994.41;;;19.18;63.38
6833;BME280;3454;42.654;23.378;2023-07-29T01:00:15;64994.41;;;19.18;62.90
6833;BME280;3454;42.654;23.378;2023-07-29T01:02:42;64962.94;;;18.90;65.05
6833;BME280;3454;42.654;23.378;2023-07-29T01:05:08;64989.78;;;19.12;64.51
6833;BME280;3454;42.654;23.378;2023-07-29T01:18:00;64985.34;;;19.08;64.24
6833;BME280;3454;42.654;23.378;2023-07-29T01:20:33;64982.03;;;19.05;64.74
6833;BME280;3454;42.654;23.378;2023-07-29T01:22:59;64978.94;;;19.04;65.16
6833;BME280;3454;42.654;23.378;2023-07-29T01:25:24;64972.50;;;19.01;64.82
6833;BME280;3454;42.654;23.378;2023-07-29T01:27:51;64971.00;;;18.95;65.14
6833;BME280;3454;42.654;23.378;2023-07-29T01:30:19;64969.22;;;18.98;65.26
6833;BME280;3454;42.654;23.378;2023-07-29T01:32:54;64965.16;;;18.92;65.12
6833;BME280;3454;42.654;23.378;2023-07-29T01:35:42;64941.97;;;18.71;65.56
6833;BME280;3454;42.654;23.378;2023-07-29T01:38:17;64944.53;;;18.71;65.58
6833;BME280;3454;42.654;23.378;2023-07-29T01:40:44;64937.56;;;18.67;65.80
6833;BME280;3454;42.654;23.378;2023-07-29T01:43:11;64945.28;;;18.74;66.27
6833;BME280;3454;42.654;23.378;2023-07-29T01:45:37;64961.06;;;18.86;65.85
6833;BME280;3454;42.654;23.378;2023-07-29T01:48:05;64955.00;;;18.80;65.78
6833;BME280;3454;42.654;23.378;2023-07-29T01:50:31;64945.63;;;18.72;65.92
6833;BME280;3454;42.654;23.378;2023-07-29T01:52:57;64933.47;;;18.61;66.71
6833;BME280;3454;42.654;23.378;2023-07-29T01:55:23;64924.66;;;18.53;68.46
6833;BME280;3454;42.654;23.378;2023-07-29T01:57:49;64936.81;;;18.64;67.67
6833;BME280;3454;42.654;23.378;2023-07-29T02:00:15;64952.25;;;18.78;67.58
6833;BME280;3454;42.654;23.378;2023-07-29T02:02:41;64938.66;;;18.68;67.88
6833;BME280;3454;42.654;23.378;2023-07-29T02:05:06;64950.78;;;18.79;67.97
6833;BME280;3454;42.654;23.378;2023-07-29T02:07:32;64956.66;;;18.82;66.89
6833;BME280;3454;42.654;23.378;2023-07-29T02:09:58;64958.88;;;18.84;65.16
6833;BME280;3454;42.654;23.378;2023-07-29T02:12:24;64941.44;;;18.70;65.02
6833;BME280;3454;42.654;23.378;2023-07-29T02:14:49;64941.78;;;18.68;64.87
6833;BME280;3454;42.654;23.378;2023-07-29T02:17:15;64930.03;;;18.62;65.14
6833;BME280;3454;42.654;23.378;2023-07-29T02:19:40;64928.72;;;18.59;65.33
6833;BME280;3454;42.654;23.378;2023-07-29T02:22:06;64902.44;;;18.37;67.12
6833;BME280;3454;42.654;23.378;2023-07-29T02:24:31;64914.06;;;18.48;66.56
6833;BME280;3454;42.654;23.378;2023-07-29T02:26:57;64915.06;;;18.41;66.79
6833;BME280;3454;42.654;23.378;2023-07-29T02:29:22;64917.69;;;18.49;66.68
6833;BME280;3454;42.654;23.378;2023-07-29T02:31:48;64909.19;;;18.38;67.34
6833;BME280;3454;42.654;23.378;2023-07-29T02:34:14;64907.00;;;18.36;68.02
6833;BME280;3454;42.654;23.378;2023-07-29T02:36:39;64896.53;;;18.27;67.55
6833;BME280;3454;42.654;23.378;2023-07-29T02:39:05;64880.53;;;18.12;68.25
6833;BME280;3454;42.654;23.378;2023-07-29T02:41:32;64853.72;;;17.90;69.51
6833;BME280;3454;42.654;23.378;2023-07-29T02:43:59;64868.06;;;18.03;68.56
6833;BME280;3454;42.654;23.378;2023-07-29T02:46:24;64858.69;;;17.95;69.17
6833;BME280;3454;42.654;23.378;2023-07-29T02:48:50;64854.28;;;17.91;69.40
6833;BME280;3454;42.654;23.378;2023-07-29T02:51:15;64838.28;;;17.76;70.05
6833;BME280;3454;42.654;23.378;2023-07-29T02:53:41;64833.88;;;17.72;70.51
6833;BME280;3454;42.654;23.378;2023-07-29T02:56:06;64834.22;;;17.70;70.61
6833;BME280;3454;42.654;23.378;2023-07-29T02:58:34;64839.19;;;17.75;70.45
6833;BME280;3454;42.654;23.378;2023-07-29T03:01:01;64836.09;;;17.74;70.88
6833;BME280;3454;42.654;23.378;2023-07-29T03:03:28;64825.97;;;17.63;71.95
6833;BME280;3454;42.654;23.378;2023-07-29T03:06:01;64844.34;;;17.82;71.29
6833;BME280;3454;42.654;23.378;2023-07-29T03:08:27;64857.03;;;17.93;70.86
6833;BME280;3454;42.654;23.378;2023-07-29T03:10:54;64873.56;;;18.08;70.01
6833;BME280;3454;42.654;23.378;2023-07-29T03:13:20;64882.38;;;18.16;69.60
6833;BME280;3454;42.654;23.378;2023-07-29T03:15:45;64864.53;;;17.98;70.83
6833;BME280;3454;42.654;23.378;2023-07-29T03:18:11;64869.50;;;18.02;70.38
6833;BME280;3454;42.654;23.378;2023-07-29T03:20:39;64871.34;;;18.06;70.52
6833;BME280;3454;42.654;23.378;2023-07-29T03:23:08;64867.84;;;18.01;71.46
6833;BME280;3454;42.654;23.378;2023-07-29T03:25:33;64878.53;;;18.13;71.20
6833;BME280;3454;42.654;23.378;2023-07-29T03:27:58;64900.38;;;18.30;69.85
6833;BME280;3454;42.654;23.378;2023-07-29T03:30:24;64904.25;;;18.34;68.79
6833;BME280;3454;42.654;23.378;2023-07-29T03:32:50;64889.56;;;18.23;68.47
6833;BME280;3454;42.654;23.378;2023-07-29T03:35:16;64877.78;;;18.10;69.36
6833;BME280;3454;42.654;23.378;2023-07-29T03:37:41;64852.06;;;17.89;70.38
6833;BME280;3454;42.654;23.378;2023-07-29T03:40:08;64846.34;;;17.81;75.15
6833;BME280;3454;42.654;23.378;2023-07-29T03:42:36;64850.22;;;17.85;71.72
6833;BME280;3454;42.654;23.378;2023-07-29T03:45:02;64848.56;;;17.83;72.04
6833;BME280;3454;42.654;23.378;2023-07-29T03:47:27;64849.88;;;17.87;71.94
6833;BME280;3454;42.654;23.378;2023-07-29T03:49:52;64832.78;;;17.71;72.96
6833;BME280;3454;42.654;23.378;2023-07-29T03:52:18;64837.53;;;17.73;73.10
6833;BME280;3454;42.654;23.378;2023-07-29T03:54:44;64838.28;;;17.76;72.87
6833;BME280;3454;42.654;23.378;2023-07-29T03:57:09;64845.44;;;17.83;72.92
6833;BME280;3454;42.654;23.378;2023-07-29T03:59:34;64870.59;;;18.03;72.21
6833;BME280;3454;42.654;23.378;2023-07-29T04:02:01;64853.72;;;17.90;72.53
6833;BME280;3454;42.654;23.378;2023-07-29T04:04:26;64857.03;;;17.93;72.96
6833;BME280;3454;42.654;23.378;2023-07-29T04:06:52;64854.28;;;17.91;72.95
6833;BME280;3454;42.654;23.378;2023-07-29T04:09:17;64842.81;;;17.76;73.94
6833;BME280;3454;42.654;23.378;2023-07-29T04:11:43;64821.56;;;17.58;76.06
6833;BME280;3454;42.654;23.378;2023-07-29T04:14:15;64825.41;;;17.62;76.15
6833;BME280;3454;42.654;23.378;2023-07-29T04:16:40;64838.50;;;17.79;76.36
6833;BME280;3454;42.654;23.378;2023-07-29T04:19:06;64854.81;;;17.91;76.05
6833;BME280;3454;42.654;23.378;2023-07-29T04:21:31;64868.06;;;18.03;75.57
6833;BME280;3454;42.654;23.378;2023-07-29T04:23:57;64882.38;;;18.16;80.56
6833;BME280;3454;42.654;23.378;2023-07-29T04:26:22;64955.56;;;18.81;81.45
6833;BME280;3454;42.654;23.378;2023-07-29T04:28:48;65015.19;;;19.35;82.25
6833;BME280;3454;42.654;23.378;2023-07-29T04:31:13;65027.75;;;19.51;69.72
6833;BME280;3454;42.654;23.378;2023-07-29T04:33:39;65019.59;;;19.39;73.44
6833;BME280;3454;42.654;23.378;2023-07-29T04:36:05;65123.09;;;20.36;75.90
6833;BME280;3454;42.654;23.378;2023-07-29T04:38:32;65150.72;;;20.61;69.33
6833;BME280;3454;42.654;23.378;2023-07-29T04:40:58;65129.72;;;20.42;69.34
6833;BME280;3454;42.654;23.378;2023-07-29T04:43:31;65138.22;;;20.52;65.75
6833;BME280;3454;42.654;23.378;2023-07-29T04:45:57;65106.72;;;20.23;69.80
6833;BME280;3454;42.654;23.378;2023-07-29T04:48:22;65138.00;;;20.49;68.96
6833;BME280;3454;42.654;23.378;2023-07-29T04:50:48;65150.38;;;20.63;64.94
6833;BME280;3454;42.654;23.378;2023-07-29T04:53:13;65141.31;;;20.52;67.73
6833;BME280;3454;42.654;23.378;2023-07-29T04:55:41;65146.84;;;20.57;67.87
6833;BME280;3454;42.654;23.378;2023-07-29T04:58:07;65140.44;;;20.54;64.27
6833;BME280;3454;42.654;23.378;2023-07-29T05:00:33;65136.53;;;20.50;67.90
6833;BME280;3454;42.654;23.378;2023-07-29T05:02:59;65164.88;;;20.71;68.06
6833;BME280;3454;42.654;23.378;2023-07-29T05:05:24;65163.22;;;20.70;65.11
6833;BME280;3454;42.654;23.378;2023-07-29T05:07:50;65141.88;;;20.53;64.02
6833;BME280;3454;42.654;23.378;2023-07-29T05:10:15;65094.00;;;20.12;64.85
6833;BME280;3454;42.654;23.378;2023-07-29T05:12:41;65057.34;;;19.76;67.35
6833;BME280;3454;42.654;23.378;2023-07-29T05:15:07;65063.06;;;19.83;68.03
6833;BME280;3454;42.654;23.378;2023-07-29T05:17:32;65057.91;;;19.76;68.17
6833;BME280;3454;42.654;23.378;2023-07-29T05:19:58;65055.47;;;19.72;68.12
6833;BME280;3454;42.654;23.378;2023-07-29T05:22:23;65061.97;;;19.82;67.55
6833;BME280;3454;42.654;23.378;2023-07-29T05:24:50;65061.22;;;19.79;67.37
6833;BME280;3454;42.654;23.378;2023-07-29T05:27:15;65029.41;;;19.53;68.36
6833;BME280;3454;42.654;23.378;2023-07-29T05:29:41;65043.56;;;19.63;68.40
6833;BME280;3454;42.654;23.378;2023-07-29T05:32:06;65048.50;;;19.68;67.50
6833;BME280;3454;42.654;23.378;2023-07-29T05:34:32;65031.38;;;19.52;68.74
6833;BME280;3454;42.654;23.378;2023-07-29T05:36:57;65029.19;;;19.50;68.04
6833;BME280;3454;42.654;23.378;2023-07-29T05:39:23;65051.06;;;19.68;67.96
6833;BME280;3454;42.654;23.378;2023-07-29T05:41:49;65060.09;;;19.78;67.42
6833;BME280;3454;42.654;23.378;2023-07-29T05:44:15;65036.56;;;19.59;68.70
6833;BME280;3454;42.654;23.378;2023-07-29T05:46:40;65045.41;;;19.67;67.98
6833;BME280;3454;42.654;23.378;2023-07-29T05:49:05;65070.06;;;19.87;68.41
6833;BME280;3454;42.654;23.378;2023-07-29T05:51:31;65084.06;;;20.02;67.71
6833;BME280;3454;42.654;23.378;2023-07-29T05:53:57;65086.06;;;20.02;67.25
6833;BME280;3454;42.654;23.378;2023-07-29T05:56:22;65094.00;;;20.12;66.47
6833;BME280;3454;42.654;23.378;2023-07-29T05:58:47;65099.31;;;20.14;67.58
6833;BME280;3454;42.654;23.378;2023-07-29T06:01:13;65085.16;;;20.03;68.15
6833;BME280;3454;42.654;23.378;2023-07-29T06:03:39;65098.22;;;20.13;67.82
6833;BME280;3454;42.654;23.378;2023-07-29T06:06:05;65072.78;;;19.90;69.15
6833;BME280;3454;42.654;23.378;2023-07-29T06:08:30;65099.88;;;20.15;69.22
6833;BME280;3454;42.654;23.378;2023-07-29T06:10:58;65135.44;;;20.49;65.78
6833;BME280;3454;42.654;23.378;2023-07-29T06:13:23;65121.63;;;20.37;66.19
6833;BME280;3454;42.654;23.378;2023-07-29T06:15:49;65131.59;;;20.46;65.56
6833;BME280;3454;42.654;23.378;2023-07-29T06:18:15;65127.88;;;20.38;65.49
6833;BME280;3454;42.654;23.378;2023-07-29T06:20:41;65137.44;;;20.49;65.94
6833;BME280;3454;42.654;23.378;2023-07-29T06:23:07;65176.16;;;20.84;65.05
6833;BME280;3454;42.654;23.378;2023-07-29T06:25:34;65198.84;;;21.05;65.07
6833;BME280;3454;42.654;23.378;2023-07-29T06:28:00;65212.47;;;21.15;64.82
6833;BME280;3454;42.654;23.378;2023-07-29T06:30:25;65194.41;;;21.01;65.33
6833;BME280;3454;42.654;23.378;2023-07-29T06:32:51;65215.63;;;21.22;62.16
6833;BME280;3454;42.654;23.378;2023-07-29T06:35:17;65205.13;;;21.13;62.42
6833;BME280;3454;42.654;23.378;2023-07-29T06:40:26;65238.09;;;21.40;63.03
6833;BME280;3454;42.654;23.378;2023-07-29T06:42:51;65268.50;;;21.68;60.87
6833;BME280;3454;42.654;23.378;2023-07-29T06:45:17;65267.59;;;21.69;62.10
6833;BME280;3454;42.654;23.378;2023-07-29T06:47:44;65284.56;;;21.83;63.11
6833;BME280;3454;42.654;23.378;2023-07-29T06:50:10;65287.53;;;21.88;62.33
6833;BME280;3454;42.654;23.378;2023-07-29T06:52:35;65292.50;;;21.92;62.16
6833;BME280;3454;42.654;23.378;2023-07-29T06:55:04;65298.97;;;21.96;60.75
6833;BME280;3454;42.654;23.378;2023-07-29T06:57:30;65324.63;;;22.21;60.67
6833;BME280;3454;42.654;23.378;2023-07-29T06:59:56;65324.25;;;22.23;60.38
6833;BME280;3454;42.654;23.378;2023-07-29T07:02:21;65308.56;;;22.07;60.61
6833;BME280;3454;42.654;23.378;2023-07-29T07:04:48;65310.22;;;22.08;60.70
6833;BME280;3454;42.654;23.378;2023-07-29T07:07:16;65332.16;;;22.26;60.16
6833;BME280;3454;42.654;23.378;2023-07-29T07:09:42;65333.25;;;22.27;60.25
6833;BME280;3454;42.654;23.378;2023-07-29T07:12:07;65370.56;;;22.63;59.61
6833;BME280;3454;42.654;23.378;2023-07-29T07:14:33;65373.34;;;22.66;59.44
6833;BME280;3454;42.654;23.378;2023-07-29T07:16:59;65396.06;;;22.86;58.21
6833;BME280;3454;42.654;23.378;2023-07-29T07:19:25;65390.28;;;22.79;57.32
6833;BME280;3454;42.654;23.378;2023-07-29T07:21:50;65383.66;;;22.73;57.30
6833;BME280;3454;42.654;23.378;2023-07-29T07:24:16;65381.63;;;22.73;56.57
6833;BME280;3454;42.654;23.378;2023-07-29T07:26:41;65401.56;;;22.91;56.82
6833;BME280;3454;42.654;23.378;2023-07-29T07:29:07;65433.16;;;23.20;57.00
6833;BME280;3454;42.654;23.378;2023-07-29T07:31:33;65450.91;;;23.36;57.04
6833;BME280;3454;42.654;23.378;2023-07-29T07:33:59;65470.28;;;23.54;56.23
6833;BME280;3454;42.654;23.378;2023-07-29T07:36:26;65486.91;;;23.69;55.80
6833;BME280;3454;42.654;23.378;2023-07-29T07:38:52;65482.69;;;23.67;56.26
6833;BME280;3454;42.654;23.378;2023-07-29T07:41:18;65493.00;;;23.74;55.75
6833;BME280;3454;42.654;23.378;2023-07-29T07:43:43;65501.31;;;23.82;55.30
6833;BME280;3454;42.654;23.378;2023-07-29T07:46:16;65498.56;;;23.79;54.88
6833;BME280;3454;42.654;23.378;2023-07-29T07:48:42;65532.38;;;24.10;54.53
6833;BME280;3454;42.654;23.378;2023-07-29T07:51:11;65559.75;;;24.37;54.22
6833;BME280;3454;42.654;23.378;2023-07-29T07:53:37;65582.28;;;24.55;53.91
6833;BME280;3454;42.654;23.378;2023-07-29T07:56:03;65615.00;;;24.85;53.42
6833;BME280;3454;42.654;23.378;2023-07-29T07:58:29;65632.22;;;25.01;53.37
6833;BME280;3454;42.654;23.378;2023-07-29T08:01:01;65599.13;;;24.73;52.06
6833;BME280;3454;42.654;23.378;2023-07-29T08:03:27;65597.81;;;24.69;51.77
6833;BME280;3454;42.654;23.378;2023-07-29T08:05:52;65628.53;;;24.99;50.70
6833;BME280;3454;42.654;23.378;2023-07-29T08:08:18;65645.19;;;25.15;50.20
6833;BME280;3454;42.654;23.378;2023-07-29T08:10:44;65654.41;;;25.21;48.98
6833;BME280;3454;42.654;23.378;2023-07-29T08:13:09;65656.09;;;25.22;48.19
6833;BME280;3454;42.654;23.378;2023-07-29T08:15:35;65656.66;;;25.23;48.43
6833;BME280;3454;42.654;23.378;2023-07-29T08:18:00;65643.31;;;25.11;49.19
6833;BME280;3454;42.654;23.378;2023-07-29T08:20:26;65641.28;;;25.11;48.87
6833;BME280;3454;42.654;23.378;2023-07-29T08:22:51;65660.72;;;25.29;49.21
6833;BME280;3454;42.654;23.378;2023-07-29T08:25:17;65721.03;;;25.81;48.40
6833;BME280;3454;42.654;23.378;2023-07-29T08:27:42;65746.94;;;26.02;48.48
6833;BME280;3454;42.654;23.378;2023-07-29T08:30:08;65745.47;;;26.03;47.89
6833;BME280;3454;42.654;23.378;2023-07-29T08:32:34;65715.47;;;25.76;47.44
6833;BME280;3454;42.654;23.378;2023-07-29T08:34:59;65719.38;;;25.79;46.20
6833;BME280;3454;42.654;23.378;2023-07-29T08:37:25;65712.91;;;25.76;46.92
6833;BME280;3454;42.654;23.378;2023-07-29T08:39:52;65777.16;;;26.32;46.30
6833;BME280;3454;42.654;23.378;2023-07-29T08:42:19;65786.59;;;26.40;45.47
6833;BME280;3454;42.654;23.378;2023-07-29T08:44:49;65777.69;;;26.32;45.03
6833;BME280;3454;42.654;23.378;2023-07-29T08:47:14;65787.34;;;26.43;44.52
6833;BME280;3454;42.654;23.378;2023-07-29T08:49:41;65792.72;;;26.46;44.85
6833;BME280;3454;42.654;23.378;2023-07-29T08:52:07;65764.00;;;26.22;43.98
6833;BME280;3454;42.654;23.378;2023-07-29T08:54:35;65772.72;;;26.28;43.66
6833;BME280;3454;42.654;23.378;2023-07-29T08:57:10;65768.28;;;26.24;42.37
6833;BME280;3454;42.654;23.378;2023-07-29T08:59:36;65806.59;;;26.58;41.66
6833;BME280;3454;42.654;23.378;2023-07-29T09:02:01;65832.38;;;26.84;42.99
6833;BME280;3454;42.654;23.378;2023-07-29T09:04:27;65839.94;;;26.89;42.20
6833;BME280;3454;42.654;23.378;2023-07-29T09:06:56;65844.56;;;26.95;41.04
6833;BME280;3454;42.654;23.378;2023-07-29T09:09:22;65844.38;;;26.93;39.65
6833;BME280;3454;42.654;23.378;2023-07-29T09:11:48;65900.00;;;27.43;38.99
6833;BME280;3454;42.654;23.378;2023-07-29T09:14:14;65928.00;;;27.71;39.70
6833;BME280;3454;42.654;23.378;2023-07-29T09:16:40;65886.66;;;27.31;37.68
6833;BME280;3454;42.654;23.378;2023-07-29T09:19:06;65828.09;;;26.76;37.10
6833;BME280;3454;42.654;23.378;2023-07-29T09:21:32;65831.03;;;26.81;37.63
6833;BME280;3454;42.654;23.378;2023-07-29T09:24:03;65879.97;;;27.25;38.25
6833;BME280;3454;42.654;23.378;2023-07-29T09:26:29;65896.09;;;27.39;36.25
6833;BME280;3454;42.654;23.378;2023-07-29T09:28:58;65925.97;;;27.71;36.09
6833;BME280;3454;42.654;23.378;2023-07-29T09:31:28;65983.63;;;28.21;36.90
6833;BME280;3454;42.654;23.378;2023-07-29T09:34:02;66030.19;;;28.61;38.57
6833;BME280;3454;42.654;23.378;2023-07-29T09:36:31;66088.09;;;29.13;37.77
6833;BME280;3454;42.654;23.378;2023-07-29T09:38:57;66131.16;;;29.54;36.18
6833;BME280;3454;42.654;23.378;2023-07-29T09:41:26;66094.25;;;29.19;35.11
6833;BME280;3454;42.654;23.378;2023-07-29T09:43:57;66090.53;;;29.18;34.58
6833;BME280;3454;42.654;23.378;2023-07-29T09:46:25;66058.59;;;28.86;34.79
6833;BME280;3454;42.654;23.378;2023-07-29T09:48:54;66081.03;;;29.09;34.43
6833;BME280;3454;42.654;23.378;2023-07-29T09:51:21;66132.84;;;29.56;33.49
6833;BME280;3454;42.654;23.378;2023-07-29T09:53:47;66109.09;;;29.37;32.19
6833;BME280;3454;42.654;23.378;2023-07-29T09:56:14;66061.34;;;28.89;31.78
6833;BME280;3454;42.654;23.378;2023-07-29T09:58:40;66141.56;;;29.61;34.14
6833;BME280;3454;42.654;23.378;2023-07-29T10:01:08;66088.09;;;29.13;31.82
6833;BME280;3454;42.654;23.378;2023-07-29T10:03:34;66109.28;;;29.32;32.28
6833;BME280;3454;42.654;23.378;2023-07-29T10:06:04;66072.50;;;28.99;33.24
6833;BME280;3454;42.654;23.378;2023-07-29T10:08:31;66139.53;;;29.62;33.08
6833;BME280;3454;42.654;23.378;2023-07-29T10:11:01;66077.13;;;29.05;33.75
6833;BME280;3454;42.654;23.378;2023-07-29T10:13:27;66100.72;;;29.29;32.69
6833;BME280;3454;42.654;23.378;2023-07-29T10:15:56;66128.38;;;29.52;34.35
6833;BME280;3454;42.654;23.378;2023-07-29T10:18:22;66195.81;;;30.13;31.91
6833;BME280;3454;42.654;23.378;2023-07-29T10:20:50;66290.25;;;31.00;32.70
6833;BME280;3454;42.654;23.378;2023-07-29T10:23:17;66350.31;;;31.52;30.30
6833;BME280;3454;42.654;23.378;2023-07-29T10:25:47;66398.13;;;31.93;30.11
6833;BME280;3454;42.654;23.378;2023-07-29T10:28:12;66419.50;;;32.14;29.70
6833;BME280;3454;42.654;23.378;2023-07-29T10:30:41;66276.13;;;30.85;30.01
6833;BME280;3454;42.654;23.378;2023-07-29T10:33:07;66360.34;;;31.61;30.77
6833;BME280;3454;42.654;23.378;2023-07-29T10:35:33;66416.56;;;32.09;30.66
6833;BME280;3454;42.654;23.378;2023-07-29T10:38:00;66454.72;;;32.46;30.51
6833;BME280;3454;42.654;23.378;2023-07-29T10:40:52;66477.44;;;32.64;29.62
6833;BME280;3454;42.654;23.378;2023-07-29T10:43:36;66469.78;;;32.60;28.83
6833;BME280;3454;42.654;23.378;2023-07-29T10:46:22;66463.81;;;32.57;29.15
6833;BME280;3454;42.654;23.378;2023-07-29T10:53:55;66480.00;;;32.71;29.32
6833;BME280;3454;42.654;23.378;2023-07-29T10:56:31;66492.31;;;32.82;29.12
6833;BME280;3454;42.654;23.378;2023-07-29T10:59:02;66541.09;;;33.22;29.68
6833;BME280;3454;42.654;23.378;2023-07-29T11:01:52;66588.81;;;33.67;28.21
6833;BME280;3454;42.654;23.378;2023-07-29T11:12:39;66515.03;;;33.00;27.75
6833;BME280;3454;42.654;23.378;2023-07-29T11:15:12;66512.81;;;32.98;27.25
6833;BME280;3454;42.654;23.378;2023-07-29T11:17:54;66612.63;;;33.86;26.90
6833;BME280;3454;42.654;23.378;2023-07-29T11:20:31;66661.09;;;34.34;26.35
6833;BME280;3454;42.654;23.378;2023-07-29T11:23:01;66678.25;;;34.47;25.71
6833;BME280;3454;42.654;23.378;2023-07-29T11:25:28;66477.59;;;32.67;26.97
6833;BME280;3454;42.654;23.378;2023-07-29T11:27:58;66469.78;;;32.60;26.80
6833;BME280;3454;42.654;23.378;2023-07-29T11:30:25;66566.44;;;33.47;24.90
6833;BME280;3454;42.654;23.378;2023-07-29T11:32:53;66551.91;;;33.34;24.62
6833;BME280;3454;42.654;23.378;2023-07-29T11:35:19;66540.00;;;33.21;25.75
6833;BME280;3454;42.654;23.378;2023-07-29T11:37:50;66497.31;;;32.87;26.59
6833;BME280;3454;42.654;23.378;2023-07-29T11:40:17;66527.31;;;33.12;26.55
6833;BME280;3454;42.654;23.378;2023-07-29T11:42:43;66573.72;;;33.53;25.87
6833;BME280;3454;42.654;23.378;2023-07-29T11:45:10;66559.16;;;33.40;26.00
6833;BME280;3454;42.654;23.378;2023-07-29T11:47:36;66511.47;;;32.95;25.85
6833;BME280;3454;42.654;23.378;2023-07-29T11:50:05;66576.34;;;33.53;26.27
6833;BME280;3454;42.654;23.378;2023-07-29T11:52:33;66608.91;;;33.85;26.29
6833;BME280;3454;42.654;23.378;2023-07-29T11:55:00;66606.69;;;33.83;26.78
6833;BME280;3454;42.654;23.378;2023-07-29T11:57:27;66642.84;;;34.13;26.17
6833;BME280;3454;42.654;23.378;2023-07-29T11:59:53;66724.13;;;34.89;25.57
6833;BME280;3454;42.654;23.378;2023-07-29T12:02:20;66743.91;;;35.09;25.64
6833;BME280;3454;42.654;23.378;2023-07-29T12:04:47;66648.06;;;34.20;25.58
6833;BME280;3454;42.654;23.378;2023-07-29T12:07:14;66694.66;;;34.64;26.17
6833;BME280;3454;42.654;23.378;2023-07-29T12:09:41;66720.78;;;34.86;25.27
6833;BME280;3454;42.654;23.378;2023-07-29T12:12:07;66728.78;;;34.95;25.02
6833;BME280;3454;42.654;23.378;2023-07-29T12:14:34;66680.50;;;34.49;25.27
6833;BME280;3454;42.654;23.378;2023-07-29T12:17:05;66657.56;;;34.29;25.89
6833;BME280;3454;42.654;23.378;2023-07-29T12:19:37;66612.25;;;33.88;25.93
6833;BME280;3454;42.654;23.378;2023-07-29T12:22:03;66712.00;;;34.80;25.65
6833;BME280;3454;42.654;23.378;2023-07-29T12:24:31;66727.09;;;34.94;25.82
6833;BME280;3454;42.654;23.378;2023-07-29T12:26:57;66776.16;;;35.35;24.22
6833;BME280;3454;42.654;23.378;2023-07-29T12:29:23;66600.69;;;33.80;25.11
6833;BME280;3454;42.654;23.378;2023-07-29T12:31:49;66717.97;;;34.83;24.50
6833;BME280;3454;42.654;23.378;2023-07-29T12:34:22;66735.91;;;34.99;24.64
6833;BME280;3454;42.654;23.378;2023-07-29T12:36:51;66682.75;;;34.51;24.92
6833;BME280;3454;42.654;23.378;2023-07-29T12:39:21;66727.31;;;34.89;24.20
6833;BME280;3454;42.654;23.378;2023-07-29T12:41:51;66773.38;;;35.33;24.70
6833;BME280;3454;42.654;23.378;2023-07-29T12:44:17;66751.91;;;35.18;24.27
6833;BME280;3454;42.654;23.378;2023-07-29T12:46:43;66796.50;;;35.56;25.88
6833;BME280;3454;42.654;23.378;2023-07-29T12:49:09;66818.91;;;35.76;24.23
6833;BME280;3454;42.654;23.378;2023-07-29T12:51:35;66804.75;;;35.61;23.38
6833;BME280;3454;42.654;23.378;2023-07-29T12:54:01;66723.00;;;34.88;24.27
6833;BME280;3454;42.654;23.378;2023-07-29T12:56:28;66759.56;;;35.23;23.96
6833;BME280;3454;42.654;23.378;2023-07-29T12:58:54;66821.53;;;35.76;23.15
6833;BME280;3454;42.654;23.378;2023-07-29T13:01:20;66777.47;;;35.39;23.11
6833;BME280;3454;42.654;23.378;2023-07-29T13:03:45;66750.44;;;35.12;23.57
6833;BME280;3454;42.654;23.378;2023-07-29T13:06:11;66739.06;;;35.00;23.23
6833;BME280;3454;42.654;23.378;2023-07-29T13:08:37;66672.66;;;34.42;22.33
6833;BME280;3454;42.654;23.378;2023-07-29T13:11:03;66691.69;;;34.59;22.13
6833;BME280;3454;42.654;23.378;2023-07-29T13:13:29;66633.91;;;34.05;22.07
6833;BME280;3454;42.654;23.378;2023-07-29T13:15:55;66560.84;;;33.42;23.41
6833;BME280;3454;42.654;23.378;2023-07-29T13:18:21;66644.72;;;34.17;22.68
6833;BME280;3454;42.654;23.378;2023-07-29T13:20:47;66681.22;;;34.52;23.17
6833;BME280;3454;42.654;23.378;2023-07-29T13:23:12;66678.25;;;34.47;23.85
6833;BME280;3454;42.654;23.378;2023-07-29T13:25:38;66753.25;;;35.15;23.53
6833;BME280;3454;42.654;23.378;2023-07-29T13:28:04;66720.97;;;34.88;23.65
6833;BME280;3454;42.654;23.378;2023-07-29T13:30:30;66694.66;;;34.64;23.62
6833;BME280;3454;42.654;23.378;2023-07-29T13:32:56;66733.28;;;34.99;23.57
6833;BME280;3454;42.654;23.378;2023-07-29T13:35:22;66821.72;;;35.79;22.25